Time;durP1;ratioP1;P1;durP2;ratioP2;P2;SDS_P1;SDS_P2;PMS_P1;PMS_P2;Temp;Humidity;BMP_temperature;BMP_pressure;BME280_temperature;BME280_humidity;BME280_pressure;Samples;Min_cycle;Max_cycle;Signal;HPM_P1;HPM_P2
2023/04/30 00:00:14;;;;;;;12.50;2.45;;;5.80;1.00;;;;;;5004025;28;20048;-63
2023/04/30 00:02:39;;;;;;;9.48;2.42;;;5.70;1.00;;;;;;5004177;28;20053;-63
2023/04/30 00:05:05;;;;;;;9.52;1.95;;;5.70;1.00;;;;;;4993874;28;20432;-63
2023/04/30 00:07:31;;;;;;;10.15;1.35;;;5.60;1.00;;;;;;4995888;28;20054;-63
2023/04/30 00:09:57;;;;;;;11.90;1.52;;;5.70;1.00;;;;;;4995063;28;20507;-63
2023/04/30 00:12:23;;;;;;;13.93;3.13;;;5.70;1.00;;;;;;4992537;28;20062;-63
2023/04/30 00:14:48;;;;;;;11.75;2.35;;;5.70;1.00;;;;;;5025538;28;20132;-63
2023/04/30 00:17:15;;;;;;;9.63;2.40;;;5.70;1.00;;;;;;4992875;28;20046;-63
2023/04/30 00:19:41;;;;;;;10.38;2.00;;;5.60;1.00;;;;;;4995059;28;20104;-64
2023/04/30 00:22:07;;;;;;;13.48;2.58;;;5.60;1.00;;;;;;4997810;28;20049;-63
2023/04/30 00:24:33;;;;;;;12.35;2.30;;;5.60;1.00;;;;;;4981565;28;20053;-63
2023/04/30 00:26:59;;;;;;;15.07;2.50;;;5.50;1.00;;;;;;5025874;28;20046;-64
2023/04/30 00:29:25;;;;;;;16.10;3.13;;;5.50;1.00;;;;;;4989739;28;20050;-63
2023/04/30 00:31:50;;;;;;;13.35;2.78;;;5.50;1.00;;;;;;5031362;28;20361;-63
2023/04/30 00:34:16;;;;;;;13.93;2.40;;;5.40;1.00;;;;;;4993200;28;20041;-63
2023/04/30 00:36:42;;;;;;;12.70;2.25;;;5.40;1.00;;;;;;5030409;28;20052;-63
2023/04/30 00:39:07;;;;;;;9.50;2.42;;;5.40;1.00;;;;;;4994081;28;20205;-64
2023/04/30 00:41:37;;;;;;;16.42;2.50;;;5.40;1.00;;;;;;4992437;28;20425;-63
2023/04/30 00:44:03;;;;;;;10.05;1.80;;;5.30;1.00;;;;;;5024006;28;20389;-63
2023/04/30 00:46:29;;;;;;;10.98;2.10;;;5.30;1.00;;;;;;4996802;28;20100;-63
2023/04/30 00:48:55;;;;;;;14.13;2.40;;;5.20;1.00;;;;;;4990719;28;20076;-64
2023/04/30 00:51:21;;;;;;;16.55;2.15;;;5.20;1.00;;;;;;4990528;28;20046;-63
2023/04/30 00:53:47;;;;;;;9.57;1.88;;;5.20;1.00;;;;;;4992130;28;20041;-64
2023/04/30 00:56:16;;;;;;;14.05;1.60;;;5.30;1.00;;;;;;4990718;28;20042;-63
2023/04/30 00:58:42;;;;;;;13.90;1.73;;;5.40;1.00;;;;;;5024268;28;20049;-64
2023/04/30 01:01:08;;;;;;;16.25;2.10;;;5.40;1.00;;;;;;4994362;28;20099;-63
2023/04/30 01:03:34;;;;;;;10.52;1.75;;;5.40;1.00;;;;;;5025530;28;20661;-64
2023/04/30 01:06:02;;;;;;;14.65;2.40;;;5.40;4.80;;;;;;4995770;28;20245;-63
2023/04/30 01:08:30;;;;;;;20.25;2.80;;;5.50;1.00;;;;;;4991900;28;20046;-63
2023/04/30 01:11:05;;;;;;;14.85;2.67;;;5.50;1.00;;;;;;4989226;28;20046;-63
2023/04/30 01:13:38;;;;;;;13.20;2.75;;;5.50;2.40;;;;;;4991130;28;20069;-63
2023/04/30 01:16:23;;;;;;;13.85;3.00;;;5.50;7.10;;;;;;4989746;28;20041;-63
2023/04/30 01:18:55;;;;;;;16.98;2.83;;;5.50;15.10;;;;;;5021278;28;20038;-63
2023/04/30 01:21:22;;;;;;;18.83;3.30;;;5.50;9.00;;;;;;5024473;28;20348;-63
2023/04/30 01:24:17;;;;;;;15.77;2.97;;;5.50;23.20;;;;;;4991376;28;20541;-63
2023/04/30 01:27:09;;;;;;;16.42;3.20;;;5.40;32.00;;;;;;4989557;28;20527;-64
2023/04/30 01:29:36;;;;;;;14.80;2.75;;;5.40;25.60;;;;;;5025323;28;20265;-63
2023/04/30 01:32:02;;;;;;;13.85;2.47;;;5.40;28.50;;;;;;5007029;28;20111;-63
2023/04/30 01:34:28;;;;;;;10.93;2.50;;;5.40;27.90;;;;;;4987013;28;20065;-63
2023/04/30 01:37:19;;;;;;;16.10;2.35;;;5.40;21.70;;;;;;5024421;28;20797;-64
2023/04/30 01:39:57;;;;;;;14.05;2.90;;;5.40;71.40;;;;;;4973899;28;20133;-63
2023/04/30 01:42:51;;;;;;;12.13;2.55;;;5.50;65.10;;;;;;5006502;28;20401;-63
2023/04/30 01:45:30;;;;;;;15.93;2.63;;;5.50;92.40;;;;;;4991793;28;21253;-63
2023/04/30 01:48:11;;;;;;;18.40;3.05;;;5.60;83.40;;;;;;4995295;28;20418;-64
2023/04/30 01:50:54;;;;;;;18.48;2.97;;;5.60;99.90;;;;;;4991448;28;20076;-64
2023/04/30 01:53:26;;;;;;;13.77;3.25;;;5.50;99.90;;;;;;4992902;28;21475;-63
2023/04/30 01:56:01;;;;;;;15.95;3.17;;;5.40;81.90;;;;;;4992254;28;20466;-64
2023/04/30 01:58:28;;;;;;;12.18;2.97;;;5.30;67.80;;;;;;4992132;28;20054;-63
2023/04/30 02:00:54;;;;;;;20.42;3.05;;;5.20;55.60;;;;;;4989604;28;20546;-63
2023/04/30 02:03:20;;;;;;;13.48;2.88;;;5.10;69.40;;;;;;4988855;28;20125;-63
2023/04/30 02:05:47;;;;;;;13.90;2.88;;;5.10;84.80;;;;;;4990526;28;20057;-63
2023/04/30 02:08:12;;;;;;;13.82;3.58;;;4.90;78.90;;;;;;5006993;28;20045;-63
2023/04/30 02:10:38;;;;;;;14.50;3.55;;;4.90;74.80;;;;;;4994671;28;20111;-64
2023/04/30 02:13:04;;;;;;;12.02;3.45;;;4.80;90.10;;;;;;4991617;28;20054;-63
2023/04/30 02:15:30;;;;;;;13.80;3.42;;;4.80;90.90;;;;;;5030389;28;20328;-63
2023/04/30 02:17:55;;;;;;;9.07;3.45;;;4.70;95.50;;;;;;4993666;28;20046;-63
2023/04/30 02:20:21;;;;;;;14.35;3.70;;;4.60;94.30;;;;;;4995644;28;20038;-63
2023/04/30 02:22:47;;;;;;;11.23;3.35;;;4.60;95.20;;;;;;4993746;28;20049;-64
2023/04/30 02:25:13;;;;;;;16.23;3.58;;;4.50;99.90;;;;;;4992968;28;20046;-63
2023/04/30 02:27:39;;;;;;;16.38;3.65;;;4.50;99.90;;;;;;5007914;28;20061;-63
2023/04/30 02:30:05;;;;;;;17.35;3.90;;;4.40;99.90;;;;;;5025949;28;20371;-63
2023/04/30 02:32:31;;;;;;;14.80;3.92;;;4.40;99.90;;;;;;4995241;28;20867;-63
2023/04/30 02:34:56;;;;;;;9.02;3.85;;;4.40;99.90;;;;;;4994217;28;20248;-64
2023/04/30 02:37:22;;;;;;;13.95;3.75;;;4.40;99.90;;;;;;5007479;28;20042;-63
2023/04/30 02:39:48;;;;;;;14.13;4.20;;;4.30;99.90;;;;;;4977062;28;20440;-63
2023/04/30 02:42:14;;;;;;;11.57;3.30;;;4.30;99.90;;;;;;4976171;28;20132;-63
2023/04/30 02:44:40;;;;;;;12.35;4.05;;;4.40;99.90;;;;;;5024518;28;20396;-63
2023/04/30 02:47:06;;;;;;;13.20;3.47;;;4.20;99.90;;;;;;5009028;28;20049;-63
2023/04/30 02:49:31;;;;;;;15.85;4.68;;;4.30;99.90;;;;;;5026468;28;20427;-62
2023/04/30 02:51:57;;;;;;;13.90;4.57;;;4.30;99.90;;;;;;4992005;28;20038;-63
2023/04/30 02:54:23;;;;;;;15.43;4.20;;;4.30;99.90;;;;;;5023782;28;20037;-62
2023/04/30 02:56:49;;;;;;;14.18;3.72;;;4.20;99.90;;;;;;4993157;28;20526;-63
2023/04/30 02:59:14;;;;;;;15.02;4.05;;;4.20;99.90;;;;;;4992742;28;20080;-63
2023/04/30 03:01:40;;;;;;;13.43;4.40;;;4.20;99.90;;;;;;4974444;28;20129;-63
2023/04/30 03:04:06;;;;;;;12.57;4.78;;;4.20;99.90;;;;;;4992921;28;20189;-64
2023/04/30 03:06:32;;;;;;;11.40;3.90;;;4.20;99.90;;;;;;5025475;28;20061;-63
2023/04/30 03:08:59;;;;;;;13.43;3.60;;;4.10;99.90;;;;;;5013919;28;20048;-63
2023/04/30 03:11:25;;;;;;;13.23;4.03;;;4.20;99.90;;;;;;4996094;28;20405;-62
2023/04/30 03:13:51;;;;;;;10.98;3.78;;;4.10;99.90;;;;;;4997699;28;20044;-62
2023/04/30 03:16:18;;;;;;;10.38;3.60;;;4.10;99.90;;;;;;4993626;28;20132;-61
2023/04/30 03:18:48;;;;;;;15.38;3.60;;;4.00;99.90;;;;;;5011012;28;20045;-61
2023/04/30 03:21:14;;;;;;;12.05;4.50;;;4.10;99.90;;;;;;4991114;28;20046;-61
2023/04/30 03:23:40;;;;;;;12.52;4.22;;;4.00;99.90;;;;;;4993917;28;20048;-61
2023/04/30 03:26:07;;;;;;;10.45;3.95;;;4.00;99.90;;;;;;4975779;28;20046;-61
2023/04/30 03:28:33;;;;;;;8.13;3.53;;;4.00;99.90;;;;;;5025331;28;20053;-64
2023/04/30 03:30:59;;;;;;;13.80;3.90;;;4.00;99.90;;;;;;5005761;28;20515;-61
2023/04/30 03:33:26;;;;;;;11.55;4.10;;;4.00;99.90;;;;;;4979671;28;20048;-64
2023/04/30 03:35:52;;;;;;;12.27;3.50;;;4.00;99.90;;;;;;4999186;28;20411;-63
2023/04/30 03:38:18;;;;;;;11.48;3.67;;;3.80;99.90;;;;;;5014827;28;20508;-64
2023/04/30 03:40:43;;;;;;;13.80;4.07;;;3.90;99.90;;;;;;5025651;28;20049;-63
2023/04/30 03:43:09;;;;;;;10.82;4.13;;;3.90;99.90;;;;;;5012082;28;20045;-63
2023/04/30 03:45:35;;;;;;;15.68;4.10;;;3.90;99.90;;;;;;5010138;28;20053;-63
2023/04/30 03:48:00;;;;;;;7.68;3.67;;;3.80;99.90;;;;;;5031082;28;20111;-63
2023/04/30 03:50:26;;;;;;;15.10;3.97;;;3.80;99.90;;;;;;4994390;28;20091;-63
2023/04/30 03:52:52;;;;;;;13.50;4.00;;;3.80;99.90;;;;;;5009248;28;20393;-63
2023/04/30 03:55:18;;;;;;;11.80;3.15;;;3.90;99.90;;;;;;5023868;28;20508;-66
2023/04/30 03:57:43;;;;;;;14.10;3.92;;;3.90;99.90;;;;;;4962714;28;20041;-64
2023/04/30 04:00:12;;;;;;;12.35;4.25;;;3.90;99.90;;;;;;4995789;28;20359;-64
2023/04/30 04:02:38;;;;;;;15.30;4.00;;;3.90;99.90;;;;;;4993700;28;20071;-63
2023/04/30 04:05:04;;;;;;;11.07;4.05;;;4.00;99.90;;;;;;4990604;28;20099;-63
2023/04/30 04:07:30;;;;;;;13.48;4.50;;;3.90;99.90;;;;;;4995725;28;20069;-63
2023/04/30 04:09:56;;;;;;;13.00;4.03;;;3.90;99.90;;;;;;5010606;28;20124;-62
2023/04/30 04:12:22;;;;;;;12.60;3.25;;;3.90;99.90;;;;;;4993310;28;20045;-62
2023/04/30 04:14:48;;;;;;;8.98;2.55;;;3.90;99.90;;;;;;4990555;28;20320;-62
2023/04/30 04:17:14;;;;;;;11.75;2.45;;;4.00;99.90;;;;;;4990968;28;20227;-63
2023/04/30 04:19:39;;;;;;;9.13;3.53;;;3.90;99.90;;;;;;5027353;28;20081;-63
2023/04/30 04:22:05;;;;;;;10.55;2.67;;;4.00;99.90;;;;;;5026205;28;20586;-62
2023/04/30 04:24:32;;;;;;;12.07;3.45;;;4.10;99.90;;;;;;5010073;28;20056;-63
2023/04/30 04:26:58;;;;;;;9.70;2.92;;;4.20;99.90;;;;;;4989339;28;20080;-62
2023/04/30 04:29:24;;;;;;;9.07;2.67;;;4.10;99.90;;;;;;5009006;28;20058;-63
2023/04/30 04:31:50;;;;;;;9.35;2.28;;;4.20;99.90;;;;;;4974617;28;20065;-62
2023/04/30 04:34:16;;;;;;;12.25;2.67;;;4.20;99.90;;;;;;5010317;28;20035;-63
2023/04/30 04:36:42;;;;;;;8.20;3.00;;;4.30;99.90;;;;;;5029693;28;20067;-63
2023/04/30 04:39:08;;;;;;;12.07;2.72;;;4.30;99.90;;;;;;4995193;28;20037;-63
2023/04/30 04:41:34;;;;;;;8.50;2.65;;;4.30;99.90;;;;;;4970416;28;20568;-63
2023/04/30 04:44:00;;;;;;;8.70;2.90;;;4.30;99.90;;;;;;4994034;28;20044;-63
2023/04/30 04:46:27;;;;;;;8.40;2.90;;;4.20;99.90;;;;;;5027064;28;20046;-63
2023/04/30 04:48:53;;;;;;;8.30;3.55;;;4.20;99.90;;;;;;4961069;28;20087;-63
2023/04/30 04:51:19;;;;;;;8.65;3.47;;;4.20;99.90;;;;;;5020478;28;20037;-64
2023/04/30 04:53:45;;;;;;;10.70;3.95;;;4.30;99.90;;;;;;4994968;28;20106;-63
2023/04/30 04:56:10;;;;;;;12.30;4.45;;;4.30;99.90;;;;;;4990813;28;20046;-63
2023/04/30 04:58:36;;;;;;;7.90;3.75;;;4.50;99.90;;;;;;4991863;28;20191;-63
2023/04/30 05:01:03;;;;;;;11.02;4.50;;;4.50;99.90;;;;;;4988790;28;20049;-64
2023/04/30 05:03:31;;;;;;;8.95;4.18;;;4.60;99.90;;;;;;4975327;28;20464;-63
2023/04/30 05:05:57;;;;;;;12.77;4.80;;;4.80;99.90;;;;;;4988132;28;20042;-63
2023/04/30 05:08:22;;;;;;;12.77;4.82;;;4.90;99.90;;;;;;5026777;28;20053;-63
2023/04/30 05:10:50;;;;;;;13.30;4.50;;;5.00;99.90;;;;;;4992239;28;20072;-62
2023/04/30 05:13:15;;;;;;;12.48;5.50;;;5.10;99.90;;;;;;4988641;28;20373;-64
2023/04/30 05:15:41;;;;;;;17.67;6.25;;;5.30;99.90;;;;;;4989429;28;20252;-62
2023/04/30 05:18:07;;;;;;;15.35;5.78;;;5.50;99.90;;;;;;4991597;28;20217;-63
2023/04/30 05:20:32;;;;;;;13.80;5.63;;;5.80;99.90;;;;;;4992516;28;20488;-63
2023/04/30 05:22:58;;;;;;;13.82;5.20;;;6.10;99.90;;;;;;4997498;28;20384;-63
2023/04/30 05:25:24;;;;;;;11.65;5.10;;;6.40;99.90;;;;;;4976482;28;20545;-63
2023/04/30 05:27:49;;;;;;;11.00;4.93;;;6.50;99.90;;;;;;5008379;28;20046;-63
2023/04/30 05:30:15;;;;;;;13.27;4.10;;;6.70;99.90;;;;;;4960532;28;20038;-63
2023/04/30 05:32:41;;;;;;;7.07;4.18;;;6.80;99.90;;;;;;4990935;28;20649;-63
2023/04/30 05:35:08;;;;;;;9.82;3.90;;;6.90;99.90;;;;;;5021389;28;20385;-64
2023/04/30 05:37:34;;;;;;;12.25;4.13;;;6.90;99.90;;;;;;4973907;28;20065;-62
2023/04/30 05:40:00;;;;;;;13.55;3.50;;;7.00;99.90;;;;;;5019861;28;20480;-64
2023/04/30 05:42:27;;;;;;;11.93;3.40;;;7.00;99.90;;;;;;4978478;28;20049;-62
2023/04/30 05:44:54;;;;;;;13.55;3.17;;;7.10;99.90;;;;;;4992582;28;20103;-62
2023/04/30 05:47:19;;;;;;;9.50;3.35;;;7.10;99.90;;;;;;5025916;28;20057;-62
2023/04/30 05:49:45;;;;;;;6.60;3.03;;;7.10;99.90;;;;;;5029107;28;20034;-63
2023/04/30 05:52:11;;;;;;;12.45;3.35;;;7.10;99.90;;;;;;5029085;28;20295;-63
2023/04/30 05:54:36;;;;;;;20.33;3.70;;;7.20;99.90;;;;;;5032248;28;20049;-62
2023/04/30 05:57:02;;;;;;;10.40;2.75;;;7.20;99.90;;;;;;4977845;28;20643;-62
2023/04/30 05:59:28;;;;;;;8.05;2.05;;;7.30;99.90;;;;;;4979422;28;20690;-62
2023/04/30 06:01:54;;;;;;;11.68;2.20;;;7.30;99.90;;;;;;4991820;28;20193;-63
2023/04/30 06:04:19;;;;;;;11.88;2.72;;;7.40;99.90;;;;;;4996415;28;20392;-62
2023/04/30 06:06:45;;;;;;;8.68;1.90;;;7.40;99.90;;;;;;5012632;28;20427;-62
2023/04/30 06:09:11;;;;;;;11.35;2.10;;;7.50;99.90;;;;;;4977262;28;20045;-62
2023/04/30 06:11:36;;;;;;;13.80;2.17;;;7.50;99.90;;;;;;4997796;28;20052;-62
2023/04/30 06:14:03;;;;;;;6.43;1.70;;;7.60;99.90;;;;;;4964178;28;20049;-63
2023/04/30 06:16:29;;;;;;;12.52;1.95;;;7.80;99.90;;;;;;4997448;28;20081;-62
2023/04/30 06:18:55;;;;;;;11.93;1.80;;;8.20;99.90;;;;;;4992940;28;20148;-63
2023/04/30 06:21:24;;;;;;;8.60;1.90;;;8.40;99.90;;;;;;4994551;28;20068;-62
2023/04/30 06:23:51;;;;;;;10.73;2.03;;;8.50;99.90;;;;;;4978827;28;20165;-62
2023/04/30 06:26:18;;;;;;;5.65;1.52;;;8.70;99.90;;;;;;4963045;28;20049;-63
2023/04/30 06:28:44;;;;;;;7.90;1.85;;;8.90;99.90;;;;;;5014662;28;20221;-64
2023/04/30 06:31:10;;;;;;;11.43;1.88;;;9.10;99.90;;;;;;5009945;28;20038;-64
2023/04/30 06:33:35;;;;;;;13.75;2.00;;;9.30;99.90;;;;;;5018017;28;20075;-64
2023/04/30 06:36:01;;;;;;;9.23;2.17;;;9.50;8.60;;;;;;4996842;28;20117;-65
2023/04/30 06:38:27;;;;;;;7.35;1.50;;;9.70;16.00;;;;;;4981573;28;20262;-65
2023/04/30 06:40:52;;;;;;;7.93;1.48;;;10.00;31.30;;;;;;5012399;28;20392;-65
2023/04/30 06:43:18;;;;;;;8.30;1.20;;;10.30;1.00;;;;;;5013963;28;20292;-65
2023/04/30 06:45:44;;;;;;;8.00;0.90;;;10.40;99.90;;;;;;4975404;28;20053;-64
2023/04/30 06:48:09;;;;;;;7.53;0.98;;;10.60;99.90;;;;;;4976532;28;20492;-65
2023/04/30 06:50:42;;;;;;;5.47;0.88;;;10.80;99.90;;;;;;5010716;28;20046;-64
2023/04/30 06:53:08;;;;;;;8.43;1.38;;;11.00;99.90;;;;;;4994814;28;20066;-65
2023/04/30 06:55:34;;;;;;;10.98;1.10;;;10.90;99.90;;;;;;5013961;28;20136;-63
2023/04/30 06:58:00;;;;;;;10.48;1.33;;;10.70;99.90;;;;;;4980614;28;20454;-63
2023/04/30 07:00:25;;;;;;;6.15;1.45;;;10.70;99.90;;;;;;4990579;28;20041;-64
2023/04/30 07:02:51;;;;;;;5.63;1.10;;;10.60;99.90;;;;;;4994061;28;20506;-65
2023/04/30 07:05:17;;;;;;;8.73;1.05;;;10.60;99.90;;;;;;4996312;28;20152;-63
2023/04/30 07:07:43;;;;;;;8.85;0.98;;;10.80;99.90;;;;;;5008307;28;20381;-64
2023/04/30 07:10:09;;;;;;;4.22;0.73;;;10.90;99.90;;;;;;4994656;28;20741;-63
2023/04/30 07:12:35;;;;;;;7.60;1.00;;;11.00;99.90;;;;;;5012514;28;20229;-64
2023/04/30 07:15:00;;;;;;;6.70;0.88;;;10.80;99.90;;;;;;4977817;28;20614;-65
2023/04/30 07:17:26;;;;;;;6.28;1.00;;;10.70;99.90;;;;;;4990780;28;20034;-63
2023/04/30 07:19:52;;;;;;;5.28;1.25;;;10.50;99.90;;;;;;4983193;28;20220;-63
2023/04/30 07:22:18;;;;;;;6.50;0.90;;;10.40;99.90;;;;;;4996114;28;20040;-63
2023/04/30 07:24:43;;;;;;;6.00;0.73;;;10.30;99.90;;;;;;4992352;28;20034;-63
2023/04/30 07:27:09;;;;;;;4.65;0.60;;;10.30;99.90;;;;;;4991658;28;20030;-63
2023/04/30 07:29:36;;;;;;;6.55;1.00;;;10.20;99.90;;;;;;4960370;28;20526;-63
2023/04/30 07:32:01;;;;;;;9.98;1.05;;;10.10;99.90;;;;;;4993951;28;20033;-64
2023/04/30 07:34:27;;;;;;;7.70;1.08;;;10.10;99.90;;;;;;5007346;28;20045;-63
2023/04/30 07:36:53;;;;;;;8.50;0.90;;;10.20;99.90;;;;;;4994333;28;20287;-63
2023/04/30 07:39:19;;;;;;;7.22;0.90;;;10.30;99.90;;;;;;5007923;28;20052;-63
2023/04/30 07:41:44;;;;;;;5.95;0.90;;;10.50;99.90;;;;;;4974977;28;20072;-62
2023/04/30 07:44:11;;;;;;;10.45;1.02;;;10.60;99.90;;;;;;5008591;28;20489;-63
2023/04/30 07:46:36;;;;;;;5.43;0.60;;;10.50;91.20;;;;;;4994800;28;20484;-63
2023/04/30 07:49:03;;;;;;;4.95;0.55;;;10.50;41.60;;;;;;5013283;28;20044;-63
2023/04/30 07:51:28;;;;;;;8.05;0.90;;;10.40;53.40;;;;;;5036132;28;20041;-64
2023/04/30 07:53:54;;;;;;;10.50;1.05;;;10.30;65.50;;;;;;5000268;28;20037;-63
2023/04/30 07:56:20;;;;;;;10.50;1.15;;;10.30;96.00;;;;;;4973692;28;20288;-63
2023/04/30 07:58:46;;;;;;;9.30;1.02;;;10.30;77.80;;;;;;5017974;28;20764;-63
2023/04/30 08:01:12;;;;;;;8.00;1.13;;;10.40;69.00;;;;;;5004754;28;20574;-63
2023/04/30 08:03:38;;;;;;;9.68;1.05;;;10.40;59.00;;;;;;4995317;28;20094;-63
2023/04/30 08:06:05;;;;;;;9.32;0.88;;;10.40;57.50;;;;;;4962132;28;20045;-64
2023/04/30 08:08:31;;;;;;;7.43;1.10;;;10.40;72.50;;;;;;5026524;28;20050;-63
2023/04/30 08:10:56;;;;;;;6.18;0.90;;;10.50;55.60;;;;;;5022148;28;20123;-64
2023/04/30 08:13:23;;;;;;;10.13;0.80;;;10.60;50.10;;;;;;5021229;28;20669;-65
2023/04/30 08:15:49;;;;;;;5.07;0.98;;;10.90;81.50;;;;;;5009949;28;20049;-64
2023/04/30 08:18:15;;;;;;;8.30;1.35;;;11.20;1.00;;;;;;4991125;28;20561;-64
2023/04/30 08:20:40;;;;;;;6.60;0.90;;;11.20;1.00;;;;;;5024282;28;20033;-65
2023/04/30 08:23:06;;;;;;;7.30;0.70;;;11.30;1.00;;;;;;4966767;28;20067;-65
2023/04/30 08:25:33;;;;;;;6.82;0.90;;;11.30;1.00;;;;;;4999615;28;20091;-66
2023/04/30 08:27:58;;;;;;;6.80;1.20;;;11.40;1.00;;;;;;4959049;28;20034;-66
2023/04/30 08:30:24;;;;;;;5.82;0.80;;;11.60;1.00;;;;;;4992366;28;20041;-64
2023/04/30 08:32:51;;;;;;;8.38;0.73;;;11.70;1.00;;;;;;5003172;28;20166;-66
2023/04/30 08:35:16;;;;;;;5.38;0.80;;;11.60;1.00;;;;;;5007363;28;20095;-64
2023/04/30 08:37:42;;;;;;;14.73;1.27;;;11.70;1.00;;;;;;4966554;28;20539;-65
2023/04/30 08:40:10;;;;;;;12.65;1.42;;;11.70;99.90;;;;;;4975706;28;20300;-65
2023/04/30 08:42:38;;;;;;;4.75;0.80;;;11.70;1.00;;;;;;4994040;28;20133;-65
2023/04/30 08:45:05;;;;;;;7.07;1.00;;;11.90;1.00;;;;;;5009227;28;20120;-67
2023/04/30 08:47:31;;;;;;;9.23;1.00;;;12.10;99.90;;;;;;4973830;28;20124;-65
2023/04/30 08:49:57;;;;;;;7.30;0.90;;;12.00;99.90;;;;;;4963533;28;20841;-65
2023/04/30 08:52:25;;;;;;;7.10;0.88;;;11.90;99.90;;;;;;5022694;28;20030;-66
2023/04/30 08:54:53;;;;;;;6.47;0.88;;;11.80;99.90;;;;;;5025317;28;20042;-66
2023/04/30 08:57:18;;;;;;;7.38;1.08;;;11.80;99.90;;;;;;4991917;28;20615;-66
2023/04/30 08:59:46;;;;;;;5.47;0.75;;;11.80;99.90;;;;;;5027967;28;20149;-65
2023/04/30 09:02:12;;;;;;;7.50;0.70;;;11.70;99.90;;;;;;4978352;28;20054;-65
2023/04/30 09:04:37;;;;;;;7.70;0.80;;;11.70;99.90;;;;;;4975887;28;20038;-65
2023/04/30 09:07:03;;;;;;;9.52;1.08;;;11.70;99.90;;;;;;4986775;28;20057;-67
2023/04/30 09:09:36;;;;;;;8.15;1.00;;;11.70;99.90;;;;;;4993374;28;20053;-65
2023/04/30 09:12:17;;;;;;;9.88;1.05;;;12.00;99.90;;;;;;5007059;28;20038;-66
2023/04/30 09:15:01;;;;;;;10.52;2.45;;;12.10;99.90;;;;;;4994111;28;20225;-66
2023/04/30 09:17:27;;;;;;;4.68;1.20;;;12.10;99.90;;;;;;5006035;28;20103;-66
2023/04/30 09:19:53;;;;;;;7.05;0.98;;;12.30;99.90;;;;;;5011414;28;20339;-66
2023/04/30 09:22:21;;;;;;;7.55;1.10;;;12.40;99.90;;;;;;5008664;28;20448;-65
2023/04/30 09:24:48;;;;;;;7.50;0.88;;;12.40;99.90;;;;;;5016393;28;20237;-64
2023/04/30 09:27:17;;;;;;;6.00;0.90;;;12.60;99.90;;;;;;4990787;28;20359;-66
2023/04/30 09:29:44;;;;;;;3.97;0.60;;;12.80;99.90;;;;;;4980731;28;20438;-65
2023/04/30 09:32:10;;;;;;;4.15;0.60;;;13.20;99.90;;;;;;5028720;28;20041;-64
2023/04/30 09:34:36;;;;;;;8.85;1.63;;;13.30;99.90;;;;;;4994589;28;20511;-64
2023/04/30 09:37:02;;;;;;;6.65;1.90;;;13.30;99.90;;;;;;4992834;28;20037;-63
2023/04/30 09:39:29;;;;;;;5.70;0.75;;;13.20;99.90;;;;;;4998395;28;20126;-64
2023/04/30 09:42:09;;;;;;;4.47;0.70;;;13.10;99.90;;;;;;5013464;28;20049;-63
2023/04/30 09:44:39;;;;;;;5.40;0.93;;;13.00;99.90;;;;;;5013719;28;20047;-64
2023/04/30 09:47:13;;;;;;;9.35;1.20;;;13.00;99.90;;;;;;5007358;28;20272;-64
2023/04/30 09:49:43;;;;;;;9.00;1.08;;;13.00;99.90;;;;;;5011807;28;20399;-65
2023/04/30 09:52:10;;;;;;;6.07;0.80;;;13.10;99.90;;;;;;4996022;28;20042;-65
2023/04/30 09:54:37;;;;;;;5.53;0.80;;;13.10;99.90;;;;;;4980392;28;20051;-65
2023/04/30 09:57:03;;;;;;;5.68;1.00;;;13.30;99.90;;;;;;5029175;28;20669;-64
2023/04/30 09:59:38;;;;;;;7.60;0.88;;;13.60;99.90;;;;;;5028862;28;20184;-66
2023/04/30 10:02:05;;;;;;;9.25;0.85;;;13.70;99.90;;;;;;4992458;28;20794;-64
2023/04/30 10:04:37;;;;;;;3.72;0.50;;;14.00;99.90;;;;;;5006907;28;20045;-64
2023/04/30 10:07:08;;;;;;;4.30;0.90;;;14.30;99.90;;;;;;4995784;28;20050;-65
2023/04/30 10:09:40;;;;;;;7.20;1.02;;;14.20;99.90;;;;;;4999517;28;20081;-64
2023/04/30 10:12:13;;;;;;;5.30;0.80;;;14.30;99.90;;;;;;4995475;28;20046;-66
2023/04/30 10:14:43;;;;;;;5.78;0.80;;;14.80;99.90;;;;;;5028607;28;20137;-64
2023/04/30 10:17:15;;;;;;;6.38;0.73;;;15.00;99.90;;;;;;5000908;28;20389;-65
2023/04/30 10:19:45;;;;;;;4.25;0.80;;;15.10;99.90;;;;;;5000355;28;20052;-64
2023/04/30 10:22:11;;;;;;;4.75;0.70;;;15.10;99.90;;;;;;4996225;28;20345;-64
2023/04/30 10:24:37;;;;;;;6.22;0.88;;;15.30;99.90;;;;;;4991890;28;20053;-65
2023/04/30 10:27:03;;;;;;;4.82;0.73;;;15.20;99.90;;;;;;4990048;28;20585;-65
2023/04/30 10:29:29;;;;;;;6.38;0.75;;;15.30;99.90;;;;;;4991073;28;20088;-65
2023/04/30 10:31:55;;;;;;;5.05;1.08;;;15.30;99.30;;;;;;4992019;28;20129;-64
2023/04/30 10:34:39;;;;;;;3.95;0.60;;;15.30;93.50;;;;;;5009214;28;20431;-65
2023/04/30 10:37:49;;;;;;;5.28;0.57;;;15.40;70.90;;;;;;5024408;28;20052;-64
2023/04/30 10:40:15;;;;;;;4.97;0.60;;;15.30;28.80;;;;;;5003811;28;20179;-65
2023/04/30 10:42:53;;;;;;;5.63;0.47;;;15.20;15.80;;;;;;4993249;28;20237;-64
2023/04/30 10:45:35;;;;;;;4.30;0.77;;;15.30;25.60;;;;;;4996654;28;20052;-64
2023/04/30 10:48:05;;;;;;;3.10;0.40;;;15.30;49.70;;;;;;5026401;28;20077;-65
2023/04/30 10:50:32;;;;;;;3.58;0.55;;;15.40;9.60;;;;;;4998632;28;20600;-64
2023/04/30 10:53:02;;;;;;;4.18;0.50;;;15.70;7.30;;;;;;5029610;28;20040;-64
2023/04/30 10:55:29;;;;;;;4.80;0.68;;;15.80;1.00;;;;;;4997900;28;20053;-64
2023/04/30 10:57:57;;;;;;;3.90;0.52;;;15.60;1.00;;;;;;5026835;28;20359;-64
2023/04/30 11:00:29;;;;;;;4.15;0.45;;;15.70;1.00;;;;;;4995483;28;20057;-64
2023/04/30 11:02:57;;;;;;;4.18;0.50;;;15.80;1.00;;;;;;4994368;28;20087;-65
2023/04/30 11:05:38;;;;;;;3.40;0.40;;;15.80;1.00;;;;;;4993709;28;20607;-65
2023/04/30 11:08:10;;;;;;;4.25;0.50;;;15.70;1.00;;;;;;4992749;28;20395;-65
2023/04/30 11:10:35;;;;;;;4.35;0.30;;;15.80;1.00;;;;;;4996623;28;20044;-65
2023/04/30 11:13:06;;;;;;;4.78;0.40;;;16.10;1.00;;;;;;5029133;28;20038;-66
2023/04/30 11:15:44;;;;;;;3.72;0.43;;;16.20;1.00;;;;;;5016382;28;20052;-64
2023/04/30 11:18:09;;;;;;;2.45;0.50;;;16.20;1.00;;;;;;4996364;28;20307;-65
2023/04/30 11:20:50;;;;;;;4.57;0.40;;;16.20;1.00;;;;;;4984111;28;20623;-65
2023/04/30 11:23:23;;;;;;;3.72;0.40;;;16.30;1.00;;;;;;5027648;28;20533;-65
2023/04/30 11:25:52;;;;;;;2.72;0.30;;;16.30;1.00;;;;;;5016733;28;20656;-65
2023/04/30 11:28:21;;;;;;;3.08;0.30;;;16.30;1.00;;;;;;4996408;28;20042;-65
2023/04/30 11:30:55;;;;;;;4.18;0.88;;;16.10;1.00;;;;;;4977473;28;20042;-64
2023/04/30 11:33:25;;;;;;;4.22;0.50;;;16.30;1.00;;;;;;4999580;28;20470;-65
2023/04/30 11:35:52;;;;;;;3.97;0.50;;;16.40;1.00;;;;;;5005558;28;20052;-65
2023/04/30 11:38:26;;;;;;;5.22;0.40;;;16.40;1.00;;;;;;4983259;28;20352;-65
2023/04/30 11:40:53;;;;;;;4.60;0.40;;;16.40;1.00;;;;;;5031690;28;20522;-65
2023/04/30 11:43:23;;;;;;;2.72;0.40;;;16.50;1.00;;;;;;5035284;28;20180;-65
2023/04/30 11:46:16;;;;;;;5.07;0.52;;;16.60;1.00;;;;;;4985319;28;20279;-65
2023/04/30 11:48:46;;;;;;;3.33;0.43;;;16.60;1.00;;;;;;4997079;28;20080;-64
2023/04/30 11:51:19;;;;;;;2.80;0.50;;;16.70;1.00;;;;;;4990352;28;20042;-65
2023/04/30 11:53:50;;;;;;;2.97;0.50;;;16.70;1.00;;;;;;5002880;28;20038;-65
2023/04/30 11:56:24;;;;;;;2.92;0.50;;;16.90;1.00;;;;;;5000836;28;20107;-65
2023/04/30 11:58:51;;;;;;;3.67;0.60;;;17.10;1.00;;;;;;4998963;28;20050;-64
2023/04/30 12:01:18;;;;;;;2.83;0.50;;;16.90;1.00;;;;;;5004228;28;20515;-65
2023/04/30 12:03:46;;;;;;;6.60;0.85;;;17.00;1.00;;;;;;4999455;28;20053;-65
2023/04/30 12:06:24;;;;;;;3.90;1.10;;;17.10;1.00;;;;;;4999067;28;20140;-66
2023/04/30 12:08:54;;;;;;;6.57;0.57;;;17.40;1.00;;;;;;5025329;28;20381;-65
2023/04/30 12:11:24;;;;;;;5.57;1.30;;;17.70;1.00;;;;;;4976154;28;20780;-65
2023/04/30 12:14:10;;;;;;;4.03;0.55;;;17.60;1.00;;;;;;5023299;28;20061;-66
2023/04/30 12:16:47;;;;;;;5.97;1.20;;;17.70;1.00;;;;;;4976603;28;20045;-65
2023/04/30 12:19:15;;;;;;;3.53;0.70;;;17.60;1.00;;;;;;5023588;28;20176;-65
2023/04/30 12:21:46;;;;;;;3.97;1.00;;;17.60;1.00;;;;;;5031077;28;20091;-66
2023/04/30 12:24:16;;;;;;;5.13;0.68;;;17.60;1.00;;;;;;4994880;28;20120;-66
2023/04/30 12:26:42;;;;;;;2.08;0.50;;;17.70;1.00;;;;;;5028589;28;20127;-65
2023/04/30 12:29:16;;;;;;;5.45;0.55;;;18.00;1.00;;;;;;5000450;28;20037;-65
2023/04/30 12:31:42;;;;;;;5.85;0.70;;;18.10;1.00;;;;;;4994902;28;20030;-65
2023/04/30 12:34:11;;;;;;;5.95;1.20;;;18.00;1.00;;;;;;5006204;28;20030;-65
2023/04/30 12:36:41;;;;;;;3.97;0.70;;;18.10;1.00;;;;;;4988887;28;20057;-66
2023/04/30 12:39:10;;;;;;;3.10;0.50;;;18.20;1.00;;;;;;4976114;28;20463;-65
2023/04/30 12:41:43;;;;;;;5.85;0.80;;;18.30;1.00;;;;;;4988349;28;20504;-65
2023/04/30 12:44:26;;;;;;;3.33;0.50;;;18.20;1.00;;;;;;4974663;28;20064;-65
2023/04/30 12:46:59;;;;;;;4.30;0.50;;;18.50;1.00;;;;;;5009124;28;20479;-64
2023/04/30 12:49:32;;;;;;;2.97;0.60;;;18.70;1.00;;;;;;4994328;28;20050;-65
2023/04/30 12:52:11;;;;;;;4.38;0.60;;;19.00;1.00;;;;;;4988153;28;20038;-64
2023/04/30 12:54:38;;;;;;;4.93;0.60;;;19.00;1.00;;;;;;4977341;28;20041;-64